sensor_id;sensor_type;location;lat;lon;timestamp;temperature;humidity
37530;DHT22;23374;52.758;6.872;2022-08-01T00:01:20;19.10;99.90
37530;DHT22;23374;52.758;6.872;2022-08-01T00:03:41;19.10;99.90
37530;DHT22;23374;52.758;6.872;2022-08-01T00:06:01;19.00;99.90
37530;DHT22;23374;52.758;6.872;2022-08-01T00:08:21;19.00;99.90
37530;DHT22;23374;52.758;6.872;2022-08-01T00:10:41;19.00;99.90
37530;DHT22;23374;52.758;6.872;2022-08-01T00:13:01;19.00;99.90
37530;DHT22;23374;52.758;6.872;2022-08-01T00:15:21;19.00;99.90
37530;DHT22;23374;52.758;6.872;2022-08-01T00:17:42;19.00;99.90
37530;DHT22;23374;52.758;6.872;2022-08-01T00:20:05;19.00;99.90
37530;DHT22;23374;52.758;6.872;2022-08-01T00:22:26;19.00;99.90
37530;DHT22;23374;52.758;6.872;2022-08-01T00:24:46;18.90;99.90
37530;DHT22;23374;52.758;6.872;2022-08-01T00:28:43;18.90;99.90
37530;DHT22;23374;52.758;6.872;2022-08-01T00:31:04;18.90;99.90
37530;DHT22;23374;52.758;6.872;2022-08-01T00:33:24;19.00;99.90
37530;DHT22;23374;52.758;6.872;2022-08-01T00:35:45;19.00;99.90
37530;DHT22;23374;52.758;6.872;2022-08-01T00:38:05;19.00;99.90
37530;DHT22;23374;52.758;6.872;2022-08-01T00:40:26;19.00;99.90
37530;DHT22;23374;52.758;6.872;2022-08-01T00:42:46;19.00;99.90
37530;DHT22;23374;52.758;6.872;2022-08-01T00:45:08;19.00;99.90
37530;DHT22;23374;52.758;6.872;2022-08-01T00:47:28;19.00;99.90
37530;DHT22;23374;52.758;6.872;2022-08-01T00:49:48;18.90;99.90
37530;DHT22;23374;52.758;6.872;2022-08-01T00:52:08;18.90;99.90
37530;DHT22;23374;52.758;6.872;2022-08-01T00:54:29;18.90;99.90
37530;DHT22;23374;52.758;6.872;2022-08-01T00:56:50;18.90;99.90
37530;DHT22;23374;52.758;6.872;2022-08-01T00:59:12;18.90;99.90
37530;DHT22;23374;52.758;6.872;2022-08-01T01:01:34;19.00;99.90
37530;DHT22;23374;52.758;6.872;2022-08-01T01:03:55;19.00;99.90
37530;DHT22;23374;52.758;6.872;2022-08-01T01:29:28;18.90;99.90
37530;DHT22;23374;52.758;6.872;2022-08-01T01:31:59;18.80;99.90
37530;DHT22;23374;52.758;6.872;2022-08-01T01:34:23;18.90;99.90
37530;DHT22;23374;52.758;6.872;2022-08-01T01:36:44;18.90;99.90
37530;DHT22;23374;52.758;6.872;2022-08-01T01:39:06;18.80;99.90
37530;DHT22;23374;52.758;6.872;2022-08-01T01:41:28;18.90;99.90
37530;DHT22;23374;52.758;6.872;2022-08-01T01:43:49;18.90;99.90
37530;DHT22;23374;52.758;6.872;2022-08-01T01:46:12;18.90;99.90
37530;DHT22;23374;52.758;6.872;2022-08-01T01:48:36;18.80;99.90
37530;DHT22;23374;52.758;6.872;2022-08-01T01:50:57;18.90;99.90
37530;DHT22;23374;52.758;6.872;2022-08-01T01:53:21;18.90;99.90
37530;DHT22;23374;52.758;6.872;2022-08-01T01:55:45;18.90;99.90
37530;DHT22;23374;52.758;6.872;2022-08-01T01:58:07;18.80;99.90
37530;DHT22;23374;52.758;6.872;2022-08-01T02:00:29;18.90;99.90
37530;DHT22;23374;52.758;6.872;2022-08-01T02:02:51;18.90;99.90
37530;DHT22;23374;52.758;6.872;2022-08-01T02:05:13;18.90;99.90
37530;DHT22;23374;52.758;6.872;2022-08-01T02:07:35;18.90;99.90
37530;DHT22;23374;52.758;6.872;2022-08-01T02:09:56;18.90;99.90
37530;DHT22;23374;52.758;6.872;2022-08-01T02:12:19;18.90;99.90
37530;DHT22;23374;52.758;6.872;2022-08-01T02:14:42;18.90;99.90
37530;DHT22;23374;52.758;6.872;2022-08-01T02:17:05;18.90;99.90
37530;DHT22;23374;52.758;6.872;2022-08-01T02:19:26;18.90;99.90
37530;DHT22;23374;52.758;6.872;2022-08-01T02:21:56;18.90;99.90
37530;DHT22;23374;52.758;6.872;2022-08-01T02:24:27;18.90;99.90
37530;DHT22;23374;52.758;6.872;2022-08-01T02:29:03;18.90;99.90
37530;DHT22;23374;52.758;6.872;2022-08-01T02:31:25;18.90;99.90
37530;DHT22;23374;52.758;6.872;2022-08-01T02:34:00;18.90;99.90
37530;DHT22;23374;52.758;6.872;2022-08-01T02:36:26;18.80;99.90
37530;DHT22;23374;52.758;6.872;2022-08-01T02:38:48;18.80;99.90
37530;DHT22;23374;52.758;6.872;2022-08-01T02:41:20;18.80;99.90
37530;DHT22;23374;52.758;6.872;2022-08-01T02:43:49;18.70;99.90
37530;DHT22;23374;52.758;6.872;2022-08-01T02:46:17;18.70;99.90
37530;DHT22;23374;52.758;6.872;2022-08-01T02:48:41;18.70;99.90
37530;DHT22;23374;52.758;6.872;2022-08-01T02:51:03;18.70;99.90
37530;DHT22;23374;52.758;6.872;2022-08-01T02:53:27;18.70;99.90
37530;DHT22;23374;52.758;6.872;2022-08-01T02:55:51;18.70;99.90
37530;DHT22;23374;52.758;6.872;2022-08-01T02:58:15;18.70;99.90
37530;DHT22;23374;52.758;6.872;2022-08-01T03:00:36;18.60;99.90
37530;DHT22;23374;52.758;6.872;2022-08-01T03:02:58;18.70;99.90
37530;DHT22;23374;52.758;6.872;2022-08-01T03:05:19;18.70;99.90
37530;DHT22;23374;52.758;6.872;2022-08-01T03:07:41;18.70;99.90
37530;DHT22;23374;52.758;6.872;2022-08-01T03:10:03;18.70;99.90
37530;DHT22;23374;52.758;6.872;2022-08-01T03:12:27;18.70;99.90
37530;DHT22;23374;52.758;6.872;2022-08-01T03:14:51;18.70;99.90
37530;DHT22;23374;52.758;6.872;2022-08-01T03:17:15;18.70;99.90
37530;DHT22;23374;52.758;6.872;2022-08-01T03:19:36;18.70;99.90
37530;DHT22;23374;52.758;6.872;2022-08-01T03:21:59;18.70;99.90
37530;DHT22;23374;52.758;6.872;2022-08-01T03:24:25;18.70;99.90
37530;DHT22;23374;52.758;6.872;2022-08-01T03:26:47;18.70;99.90
37530;DHT22;23374;52.758;6.872;2022-08-01T03:29:20;18.70;99.90
37530;DHT22;23374;52.758;6.872;2022-08-01T03:31:44;18.70;99.90
37530;DHT22;23374;52.758;6.872;2022-08-01T03:34:06;18.70;99.90
37530;DHT22;23374;52.758;6.872;2022-08-01T03:36:28;18.70;99.90
37530;DHT22;23374;52.758;6.872;2022-08-01T03:38:51;18.70;99.90
37530;DHT22;23374;52.758;6.872;2022-08-01T03:41:16;18.70;99.90
37530;DHT22;23374;52.758;6.872;2022-08-01T03:43:45;18.70;99.90
37530;DHT22;23374;52.758;6.872;2022-08-01T03:46:11;18.70;99.90
37530;DHT22;23374;52.758;6.872;2022-08-01T03:48:34;18.70;99.90
37530;DHT22;23374;52.758;6.872;2022-08-01T03:50:58;18.70;99.90
37530;DHT22;23374;52.758;6.872;2022-08-01T03:53:26;18.70;99.90
37530;DHT22;23374;52.758;6.872;2022-08-01T03:55:48;18.70;99.90
37530;DHT22;23374;52.758;6.872;2022-08-01T03:58:09;18.70;99.90
37530;DHT22;23374;52.758;6.872;2022-08-01T04:00:30;18.70;99.90
37530;DHT22;23374;52.758;6.872;2022-08-01T04:02:51;18.60;99.90
37530;DHT22;23374;52.758;6.872;2022-08-01T04:05:12;18.60;99.90
37530;DHT22;23374;52.758;6.872;2022-08-01T04:07:33;18.60;99.90
37530;DHT22;23374;52.758;6.872;2022-08-01T04:09:59;18.60;99.90
37530;DHT22;23374;52.758;6.872;2022-08-01T04:12:19;18.50;99.90
37530;DHT22;23374;52.758;6.872;2022-08-01T04:14:40;18.50;99.90
37530;DHT22;23374;52.758;6.872;2022-08-01T04:17:00;18.50;99.90
37530;DHT22;23374;52.758;6.872;2022-08-01T04:19:19;18.50;99.90
37530;DHT22;23374;52.758;6.872;2022-08-01T04:21:40;18.50;99.90
37530;DHT22;23374;52.758;6.872;2022-08-01T04:24:07;18.50;99.90
37530;DHT22;23374;52.758;6.872;2022-08-01T04:26:31;18.50;99.90
37530;DHT22;23374;52.758;6.872;2022-08-01T04:28:53;18.50;99.90
37530;DHT22;23374;52.758;6.872;2022-08-01T04:31:16;18.50;99.90
37530;DHT22;23374;52.758;6.872;2022-08-01T04:33:42;18.50;99.90
37530;DHT22;23374;52.758;6.872;2022-08-01T04:36:04;18.50;99.90
37530;DHT22;23374;52.758;6.872;2022-08-01T04:38:27;18.50;99.90
37530;DHT22;23374;52.758;6.872;2022-08-01T04:40:49;18.50;99.90
37530;DHT22;23374;52.758;6.872;2022-08-01T04:43:11;18.50;99.90
37530;DHT22;23374;52.758;6.872;2022-08-01T04:45:33;18.50;99.90
37530;DHT22;23374;52.758;6.872;2022-08-01T04:47:54;18.50;99.90
37530;DHT22;23374;52.758;6.872;2022-08-01T04:50:17;18.50;99.90
37530;DHT22;23374;52.758;6.872;2022-08-01T04:52:38;18.50;99.90
37530;DHT22;23374;52.758;6.872;2022-08-01T04:54:58;18.50;99.90
37530;DHT22;23374;52.758;6.872;2022-08-01T04:57:18;18.60;99.90
37530;DHT22;23374;52.758;6.872;2022-08-01T04:59:42;18.60;99.90
37530;DHT22;23374;52.758;6.872;2022-08-01T05:02:03;18.60;99.90
37530;DHT22;23374;52.758;6.872;2022-08-01T05:04:24;18.60;99.90
37530;DHT22;23374;52.758;6.872;2022-08-01T05:06:44;18.60;99.90
37530;DHT22;23374;52.758;6.872;2022-08-01T05:09:04;18.70;99.90
37530;DHT22;23374;52.758;6.872;2022-08-01T05:11:24;18.60;99.90
37530;DHT22;23374;52.758;6.872;2022-08-01T05:13:44;18.70;99.90
37530;DHT22;23374;52.758;6.872;2022-08-01T05:16:04;18.70;99.90
37530;DHT22;23374;52.758;6.872;2022-08-01T05:18:27;18.70;99.90
37530;DHT22;23374;52.758;6.872;2022-08-01T05:20:47;18.70;99.90
37530;DHT22;23374;52.758;6.872;2022-08-01T05:23:07;18.70;99.90
37530;DHT22;23374;52.758;6.872;2022-08-01T05:25:27;18.70;99.90
37530;DHT22;23374;52.758;6.872;2022-08-01T05:27:48;18.70;99.90
37530;DHT22;23374;52.758;6.872;2022-08-01T05:30:09;18.70;99.90
37530;DHT22;23374;52.758;6.872;2022-08-01T05:32:30;18.70;99.90
37530;DHT22;23374;52.758;6.872;2022-08-01T05:34:51;18.70;99.90
37530;DHT22;23374;52.758;6.872;2022-08-01T05:37:11;18.70;99.90
37530;DHT22;23374;52.758;6.872;2022-08-01T05:39:32;18.70;99.90
37530;DHT22;23374;52.758;6.872;2022-08-01T05:41:52;18.60;99.90
37530;DHT22;23374;52.758;6.872;2022-08-01T05:44:12;18.60;99.90
37530;DHT22;23374;52.758;6.872;2022-08-01T05:46:33;18.60;99.90
37530;DHT22;23374;52.758;6.872;2022-08-01T05:48:54;18.60;99.90
37530;DHT22;23374;52.758;6.872;2022-08-01T05:51:13;18.60;99.90
37530;DHT22;23374;52.758;6.872;2022-08-01T05:53:34;18.60;99.90
37530;DHT22;23374;52.758;6.872;2022-08-01T05:55:54;18.60;99.90
37530;DHT22;23374;52.758;6.872;2022-08-01T05:58:14;18.60;99.90
37530;DHT22;23374;52.758;6.872;2022-08-01T06:00:34;18.60;99.90
37530;DHT22;23374;52.758;6.872;2022-08-01T06:02:55;18.60;99.90
37530;DHT22;23374;52.758;6.872;2022-08-01T06:05:15;18.60;99.90
37530;DHT22;23374;52.758;6.872;2022-08-01T06:07:36;18.60;99.90
37530;DHT22;23374;52.758;6.872;2022-08-01T06:09:56;18.60;99.90
37530;DHT22;23374;52.758;6.872;2022-08-01T06:12:16;18.60;99.90
37530;DHT22;23374;52.758;6.872;2022-08-01T06:14:36;18.50;99.90
37530;DHT22;23374;52.758;6.872;2022-08-01T06:16:57;18.60;99.90
37530;DHT22;23374;52.758;6.872;2022-08-01T06:19:18;18.60;99.90
37530;DHT22;23374;52.758;6.872;2022-08-01T06:21:38;18.50;99.90
37530;DHT22;23374;52.758;6.872;2022-08-01T06:23:59;18.50;99.90
37530;DHT22;23374;52.758;6.872;2022-08-01T06:26:20;18.50;99.90
37530;DHT22;23374;52.758;6.872;2022-08-01T06:28:40;18.60;99.90
37530;DHT22;23374;52.758;6.872;2022-08-01T06:31:00;18.60;99.90
37530;DHT22;23374;52.758;6.872;2022-08-01T06:33:20;18.60;99.90
37530;DHT22;23374;52.758;6.872;2022-08-01T06:35:41;18.70;99.90
37530;DHT22;23374;52.758;6.872;2022-08-01T06:38:02;18.70;99.90
37530;DHT22;23374;52.758;6.872;2022-08-01T06:40:23;18.90;99.90
37530;DHT22;23374;52.758;6.872;2022-08-01T06:42:44;18.90;99.90
37530;DHT22;23374;52.758;6.872;2022-08-01T06:45:09;19.00;1.00
37530;DHT22;23374;52.758;6.872;2022-08-01T06:47:29;18.90;1.00
37530;DHT22;23374;52.758;6.872;2022-08-01T06:49:49;19.00;1.00
37530;DHT22;23374;52.758;6.872;2022-08-01T06:52:10;19.00;1.00
37530;DHT22;23374;52.758;6.872;2022-08-01T06:54:30;19.00;1.00
37530;DHT22;23374;52.758;6.872;2022-08-01T06:56:50;19.00;1.00
37530;DHT22;23374;52.758;6.872;2022-08-01T06:59:11;19.00;1.00
37530;DHT22;23374;52.758;6.872;2022-08-01T07:01:31;19.10;1.00
37530;DHT22;23374;52.758;6.872;2022-08-01T07:03:51;19.00;1.00
37530;DHT22;23374;52.758;6.872;2022-08-01T07:06:12;19.00;1.00
37530;DHT22;23374;52.758;6.872;2022-08-01T07:08:34;19.00;1.00
37530;DHT22;23374;52.758;6.872;2022-08-01T07:10:55;19.00;1.00
37530;DHT22;23374;52.758;6.872;2022-08-01T07:13:19;19.00;1.00
37530;DHT22;23374;52.758;6.872;2022-08-01T07:15:43;19.10;1.00
37530;DHT22;23374;52.758;6.872;2022-08-01T07:18:03;19.20;1.00
37530;DHT22;23374;52.758;6.872;2022-08-01T07:20:24;19.20;99.90
37530;DHT22;23374;52.758;6.872;2022-08-01T07:22:44;19.30;99.90
37530;DHT22;23374;52.758;6.872;2022-08-01T07:25:06;19.40;99.90
37530;DHT22;23374;52.758;6.872;2022-08-01T07:27:27;19.40;99.90
37530;DHT22;23374;52.758;6.872;2022-08-01T07:29:47;19.50;1.00
37530;DHT22;23374;52.758;6.872;2022-08-01T07:32:07;19.50;21.10
37530;DHT22;23374;52.758;6.872;2022-08-01T07:34:27;19.50;1.00
37530;DHT22;23374;52.758;6.872;2022-08-01T07:36:47;19.50;1.00
37530;DHT22;23374;52.758;6.872;2022-08-01T07:39:07;19.60;33.80
37530;DHT22;23374;52.758;6.872;2022-08-01T07:41:27;19.60;1.00
37530;DHT22;23374;52.758;6.872;2022-08-01T07:43:47;19.60;1.00
37530;DHT22;23374;52.758;6.872;2022-08-01T07:46:09;19.70;1.00
37530;DHT22;23374;52.758;6.872;2022-08-01T07:48:29;19.70;1.00
37530;DHT22;23374;52.758;6.872;2022-08-01T07:50:50;19.70;1.00
37530;DHT22;23374;52.758;6.872;2022-08-01T07:53:10;19.70;1.00
37530;DHT22;23374;52.758;6.872;2022-08-01T07:55:30;19.70;1.00
37530;DHT22;23374;52.758;6.872;2022-08-01T07:57:51;19.70;1.00
37530;DHT22;23374;52.758;6.872;2022-08-01T08:00:12;19.70;1.00
37530;DHT22;23374;52.758;6.872;2022-08-01T08:02:33;19.70;99.90
37530;DHT22;23374;52.758;6.872;2022-08-01T08:04:53;19.70;99.90
37530;DHT22;23374;52.758;6.872;2022-08-01T08:07:13;19.60;99.90
37530;DHT22;23374;52.758;6.872;2022-08-01T08:09:33;19.60;56.00
37530;DHT22;23374;52.758;6.872;2022-08-01T08:11:53;19.50;99.90
37530;DHT22;23374;52.758;6.872;2022-08-01T08:14:14;19.60;99.90
37530;DHT22;23374;52.758;6.872;2022-08-01T08:16:34;19.60;1.00
37530;DHT22;23374;52.758;6.872;2022-08-01T08:18:55;19.60;1.00
37530;DHT22;23374;52.758;6.872;2022-08-01T08:21:15;19.60;1.00
37530;DHT22;23374;52.758;6.872;2022-08-01T08:23:35;19.60;99.90
37530;DHT22;23374;52.758;6.872;2022-08-01T08:26:13;19.60;99.90
37530;DHT22;23374;52.758;6.872;2022-08-01T08:28:34;19.60;99.90
37530;DHT22;23374;52.758;6.872;2022-08-01T08:30:54;19.70;99.90
37530;DHT22;23374;52.758;6.872;2022-08-01T08:33:15;19.70;99.90
37530;DHT22;23374;52.758;6.872;2022-08-01T08:35:35;19.70;99.90
37530;DHT22;23374;52.758;6.872;2022-08-01T08:37:55;19.70;1.00
37530;DHT22;23374;52.758;6.872;2022-08-01T08:40:15;19.80;99.90
37530;DHT22;23374;52.758;6.872;2022-08-01T08:42:39;19.90;99.90
37530;DHT22;23374;52.758;6.872;2022-08-01T08:45:01;20.00;99.90
37530;DHT22;23374;52.758;6.872;2022-08-01T08:47:23;20.00;1.00
37530;DHT22;23374;52.758;6.872;2022-08-01T08:49:44;20.10;1.00
37530;DHT22;23374;52.758;6.872;2022-08-01T08:52:04;20.10;1.00
37530;DHT22;23374;52.758;6.872;2022-08-01T08:54:25;20.10;1.00
37530;DHT22;23374;52.758;6.872;2022-08-01T08:56:47;20.20;1.00
37530;DHT22;23374;52.758;6.872;2022-08-01T08:59:08;20.20;99.90
37530;DHT22;23374;52.758;6.872;2022-08-01T09:01:31;20.30;99.90
37530;DHT22;23374;52.758;6.872;2022-08-01T09:03:53;20.30;1.00
37530;DHT22;23374;52.758;6.872;2022-08-01T09:06:14;20.30;1.00
37530;DHT22;23374;52.758;6.872;2022-08-01T09:08:34;20.30;1.00
37530;DHT22;23374;52.758;6.872;2022-08-01T09:10:55;20.30;99.90
37530;DHT22;23374;52.758;6.872;2022-08-01T09:13:15;20.30;99.90
37530;DHT22;23374;52.758;6.872;2022-08-01T09:15:55;20.40;99.90
37530;DHT22;23374;52.758;6.872;2022-08-01T09:18:35;20.50;99.90
37530;DHT22;23374;52.758;6.872;2022-08-01T09:22:48;20.50;1.00
37530;DHT22;23374;52.758;6.872;2022-08-01T09:25:09;20.60;1.00
37530;DHT22;23374;52.758;6.872;2022-08-01T09:27:31;20.60;1.00
37530;DHT22;23374;52.758;6.872;2022-08-01T09:29:54;20.70;1.00
37530;DHT22;23374;52.758;6.872;2022-08-01T09:32:15;20.80;1.00
37530;DHT22;23374;52.758;6.872;2022-08-01T09:34:36;21.00;2.40
37530;DHT22;23374;52.758;6.872;2022-08-01T09:36:59;21.00;1.00
37530;DHT22;23374;52.758;6.872;2022-08-01T09:39:22;21.00;1.00
37530;DHT22;23374;52.758;6.872;2022-08-01T09:41:43;21.00;99.90
37530;DHT22;23374;52.758;6.872;2022-08-01T09:44:03;21.00;99.90
37530;DHT22;23374;52.758;6.872;2022-08-01T09:46:24;21.00;99.90
37530;DHT22;23374;52.758;6.872;2022-08-01T09:49:06;21.00;1.00
37530;DHT22;23374;52.758;6.872;2022-08-01T09:51:35;21.00;99.90
37530;DHT22;23374;52.758;6.872;2022-08-01T09:53:56;20.90;1.00
37530;DHT22;23374;52.758;6.872;2022-08-01T09:56:17;20.90;99.90
37530;DHT22;23374;52.758;6.872;2022-08-01T10:00:29;20.90;99.90
37530;DHT22;23374;52.758;6.872;2022-08-01T10:02:50;20.90;96.40
37530;DHT22;23374;52.758;6.872;2022-08-01T10:05:10;20.90;99.90
37530;DHT22;23374;52.758;6.872;2022-08-01T10:07:31;21.00;1.00
37530;DHT22;23374;52.758;6.872;2022-08-01T10:09:51;21.00;7.70
37530;DHT22;23374;52.758;6.872;2022-08-01T10:12:18;21.00;1.00
37530;DHT22;23374;52.758;6.872;2022-08-01T10:14:40;21.00;99.90
37530;DHT22;23374;52.758;6.872;2022-08-01T10:17:01;21.10;1.00
37530;DHT22;23374;52.758;6.872;2022-08-01T10:19:26;21.10;1.00
37530;DHT22;23374;52.758;6.872;2022-08-01T10:21:46;21.20;99.90
37530;DHT22;23374;52.758;6.872;2022-08-01T10:24:11;21.20;1.00
37530;DHT22;23374;52.758;6.872;2022-08-01T10:26:33;21.30;1.00
37530;DHT22;23374;52.758;6.872;2022-08-01T10:28:54;21.40;1.00
37530;DHT22;23374;52.758;6.872;2022-08-01T10:31:18;21.40;99.90
37530;DHT22;23374;52.758;6.872;2022-08-01T10:33:40;21.40;99.90
37530;DHT22;23374;52.758;6.872;2022-08-01T10:36:02;21.50;99.90
37530;DHT22;23374;52.758;6.872;2022-08-01T10:38:22;21.50;1.00
37530;DHT22;23374;52.758;6.872;2022-08-01T10:40:44;21.50;1.00
37530;DHT22;23374;52.758;6.872;2022-08-01T10:43:05;21.50;99.90
37530;DHT22;23374;52.758;6.872;2022-08-01T10:45:25;21.60;1.00
37530;DHT22;23374;52.758;6.872;2022-08-01T10:48:14;21.70;1.00
37530;DHT22;23374;52.758;6.872;2022-08-01T10:50:41;21.90;99.90
37530;DHT22;23374;52.758;6.872;2022-08-01T10:53:20;22.00;99.90
37530;DHT22;23374;52.758;6.872;2022-08-01T10:56:02;22.00;1.00
37530;DHT22;23374;52.758;6.872;2022-08-01T10:58:35;21.90;83.50
37530;DHT22;23374;52.758;6.872;2022-08-01T11:01:29;22.00;99.90
37530;DHT22;23374;52.758;6.872;2022-08-01T11:07:58;22.10;1.00
37530;DHT22;23374;52.758;6.872;2022-08-01T11:10:42;22.10;1.00
37530;DHT22;23374;52.758;6.872;2022-08-01T11:13:03;22.20;1.00
37530;DHT22;23374;52.758;6.872;2022-08-01T11:15:27;22.20;1.00
37530;DHT22;23374;52.758;6.872;2022-08-01T11:17:48;22.30;1.00
37530;DHT22;23374;52.758;6.872;2022-08-01T11:20:59;22.40;1.00
37530;DHT22;23374;52.758;6.872;2022-08-01T11:23:19;22.40;99.90
37530;DHT22;23374;52.758;6.872;2022-08-01T11:26:25;22.50;1.00
37530;DHT22;23374;52.758;6.872;2022-08-01T11:29:11;22.60;99.90
37530;DHT22;23374;52.758;6.872;2022-08-01T11:31:32;22.60;99.90
37530;DHT22;23374;52.758;6.872;2022-08-01T11:33:53;22.60;99.90
37530;DHT22;23374;52.758;6.872;2022-08-01T11:36:17;22.60;99.90
37530;DHT22;23374;52.758;6.872;2022-08-01T11:41:53;22.40;99.90
37530;DHT22;23374;52.758;6.872;2022-08-01T11:44:18;22.40;99.90
37530;DHT22;23374;52.758;6.872;2022-08-01T11:47:04;22.30;99.90
37530;DHT22;23374;52.758;6.872;2022-08-01T11:50:33;22.30;99.90
37530;DHT22;23374;52.758;6.872;2022-08-01T11:53:06;22.50;99.90
37530;DHT22;23374;52.758;6.872;2022-08-01T11:55:28;22.50;99.90
37530;DHT22;23374;52.758;6.872;2022-08-01T11:57:49;22.50;99.90
37530;DHT22;23374;52.758;6.872;2022-08-01T12:00:15;22.60;1.00
37530;DHT22;23374;52.758;6.872;2022-08-01T12:02:36;22.60;99.90
37530;DHT22;23374;52.758;6.872;2022-08-01T12:05:00;22.70;99.90
37530;DHT22;23374;52.758;6.872;2022-08-01T12:07:22;22.90;99.90
37530;DHT22;23374;52.758;6.872;2022-08-01T12:09:43;23.00;99.90
37530;DHT22;23374;52.758;6.872;2022-08-01T12:12:04;23.00;99.90
37530;DHT22;23374;52.758;6.872;2022-08-01T12:14:25;23.10;99.90
37530;DHT22;23374;52.758;6.872;2022-08-01T12:16:52;23.10;99.90
37530;DHT22;23374;52.758;6.872;2022-08-01T12:19:22;23.00;99.90
37530;DHT22;23374;52.758;6.872;2022-08-01T12:21:42;23.00;99.90
37530;DHT22;23374;52.758;6.872;2022-08-01T12:24:03;23.00;99.90
37530;DHT22;23374;52.758;6.872;2022-08-01T12:26:23;23.00;99.90
37530;DHT22;23374;52.758;6.872;2022-08-01T12:28:43;23.10;99.90
37530;DHT22;23374;52.758;6.872;2022-08-01T12:31:03;23.10;99.90
37530;DHT22;23374;52.758;6.872;2022-08-01T12:33:24;23.10;99.90
37530;DHT22;23374;52.758;6.872;2022-08-01T12:35:44;23.10;99.90
37530;DHT22;23374;52.758;6.872;2022-08-01T12:38:18;23.00;99.90
37530;DHT22;23374;52.758;6.872;2022-08-01T12:40:42;22.90;99.90
37530;DHT22;23374;52.758;6.872;2022-08-01T12:43:06;22.80;99.90
37530;DHT22;23374;52.758;6.872;2022-08-01T12:46:00;22.80;99.90
37530;DHT22;23374;52.758;6.872;2022-08-01T12:48:21;22.70;69.20
37530;DHT22;23374;52.758;6.872;2022-08-01T12:50:45;22.70;99.90
37530;DHT22;23374;52.758;6.872;2022-08-01T12:53:05;22.70;99.90
37530;DHT22;23374;52.758;6.872;2022-08-01T12:55:27;22.70;99.90
37530;DHT22;23374;52.758;6.872;2022-08-01T12:57:59;22.80;99.90
37530;DHT22;23374;52.758;6.872;2022-08-01T13:00:25;22.80;99.90
37530;DHT22;23374;52.758;6.872;2022-08-01T13:02:48;22.90;99.90
37530;DHT22;23374;52.758;6.872;2022-08-01T13:05:09;23.00;99.90
37530;DHT22;23374;52.758;6.872;2022-08-01T13:07:50;23.00;99.90
37530;DHT22;23374;52.758;6.872;2022-08-01T13:10:11;23.00;32.00
37530;DHT22;23374;52.758;6.872;2022-08-01T13:12:32;23.20;99.90
37530;DHT22;23374;52.758;6.872;2022-08-01T13:14:53;23.40;79.90
37530;DHT22;23374;52.758;6.872;2022-08-01T13:17:30;23.40;99.90
37530;DHT22;23374;52.758;6.872;2022-08-01T13:19:51;23.50;88.20
37530;DHT22;23374;52.758;6.872;2022-08-01T13:22:12;23.40;99.90
37530;DHT22;23374;52.758;6.872;2022-08-01T13:24:33;23.40;99.90
37530;DHT22;23374;52.758;6.872;2022-08-01T13:27:04;23.40;75.60
37530;DHT22;23374;52.758;6.872;2022-08-01T13:29:38;23.40;37.80
37530;DHT22;23374;52.758;6.872;2022-08-01T13:32:16;23.30;1.00
37530;DHT22;23374;52.758;6.872;2022-08-01T13:34:36;23.10;1.00
37530;DHT22;23374;52.758;6.872;2022-08-01T13:36:57;23.00;99.90
37530;DHT22;23374;52.758;6.872;2022-08-01T13:39:17;23.10;99.90
37530;DHT22;23374;52.758;6.872;2022-08-01T13:41:56;23.20;99.90
37530;DHT22;23374;52.758;6.872;2022-08-01T13:44:16;23.30;28.40
37530;DHT22;23374;52.758;6.872;2022-08-01T13:46:38;23.30;87.30
37530;DHT22;23374;52.758;6.872;2022-08-01T13:48:58;23.40;30.30
37530;DHT22;23374;52.758;6.872;2022-08-01T13:51:18;23.50;98.50
37530;DHT22;23374;52.758;6.872;2022-08-01T13:53:38;23.60;99.90
37530;DHT22;23374;52.758;6.872;2022-08-01T13:55:58;23.70;87.90
37530;DHT22;23374;52.758;6.872;2022-08-01T13:58:18;23.70;95.20
37530;DHT22;23374;52.758;6.872;2022-08-01T14:00:38;23.60;35.30
37530;DHT22;23374;52.758;6.872;2022-08-01T14:02:58;23.50;51.60
37530;DHT22;23374;52.758;6.872;2022-08-01T14:05:19;23.40;72.00
37530;DHT22;23374;52.758;6.872;2022-08-01T14:07:39;23.40;27.30
37530;DHT22;23374;52.758;6.872;2022-08-01T14:10:00;23.40;70.90
37530;DHT22;23374;52.758;6.872;2022-08-01T14:12:21;23.40;79.30
37530;DHT22;23374;52.758;6.872;2022-08-01T14:14:42;23.60;20.80
37530;DHT22;23374;52.758;6.872;2022-08-01T14:17:02;23.70;1.00
37530;DHT22;23374;52.758;6.872;2022-08-01T14:19:23;23.80;5.20
37530;DHT22;23374;52.758;6.872;2022-08-01T14:21:43;23.70;1.00
37530;DHT22;23374;52.758;6.872;2022-08-01T14:24:04;23.60;24.80
37530;DHT22;23374;52.758;6.872;2022-08-01T14:26:26;23.50;37.00
37530;DHT22;23374;52.758;6.872;2022-08-01T14:28:46;23.40;60.50
37530;DHT22;23374;52.758;6.872;2022-08-01T14:31:06;23.30;61.50
37530;DHT22;23374;52.758;6.872;2022-08-01T14:33:27;23.30;63.80
37530;DHT22;23374;52.758;6.872;2022-08-01T14:35:48;23.20;67.80
37530;DHT22;23374;52.758;6.872;2022-08-01T14:38:08;23.30;54.50
37530;DHT22;23374;52.758;6.872;2022-08-01T14:40:28;23.40;42.90
37530;DHT22;23374;52.758;6.872;2022-08-01T14:42:49;23.50;21.70
37530;DHT22;23374;52.758;6.872;2022-08-01T14:45:10;23.60;5.50
37530;DHT22;23374;52.758;6.872;2022-08-01T14:47:30;23.70;1.00
37530;DHT22;23374;52.758;6.872;2022-08-01T14:49:51;23.80;13.50
37530;DHT22;23374;52.758;6.872;2022-08-01T14:52:11;23.90;14.60
37530;DHT22;23374;52.758;6.872;2022-08-01T14:54:31;24.00;1.00
37530;DHT22;23374;52.758;6.872;2022-08-01T14:56:51;24.00;1.00
37530;DHT22;23374;52.758;6.872;2022-08-01T14:59:13;23.90;1.00
37530;DHT22;23374;52.758;6.872;2022-08-01T15:01:33;23.90;1.00
37530;DHT22;23374;52.758;6.872;2022-08-01T15:03:53;24.00;1.00
37530;DHT22;23374;52.758;6.872;2022-08-01T15:06:13;24.00;1.00
37530;DHT22;23374;52.758;6.872;2022-08-01T15:08:33;24.00;1.00
37530;DHT22;23374;52.758;6.872;2022-08-01T15:10:53;23.90;1.00
37530;DHT22;23374;52.758;6.872;2022-08-01T15:13:13;23.90;1.00
37530;DHT22;23374;52.758;6.872;2022-08-01T15:15:33;23.90;1.00
37530;DHT22;23374;52.758;6.872;2022-08-01T15:17:54;23.90;1.00
37530;DHT22;23374;52.758;6.872;2022-08-01T15:20:14;24.00;1.00
37530;DHT22;23374;52.758;6.872;2022-08-01T15:22:34;24.10;1.00
37530;DHT22;23374;52.758;6.872;2022-08-01T15:24:56;24.10;1.00
37530;DHT22;23374;52.758;6.872;2022-08-01T15:27:17;24.10;1.00
37530;DHT22;23374;52.758;6.872;2022-08-01T15:29:37;24.00;1.00
37530;DHT22;23374;52.758;6.872;2022-08-01T15:31:59;24.00;1.00
37530;DHT22;23374;52.758;6.872;2022-08-01T15:34:20;23.90;1.00
37530;DHT22;23374;52.758;6.872;2022-08-01T15:36:40;23.80;1.00
37530;DHT22;23374;52.758;6.872;2022-08-01T15:39:03;23.70;1.00
37530;DHT22;23374;52.758;6.872;2022-08-01T15:41:23;23.70;1.00
37530;DHT22;23374;52.758;6.872;2022-08-01T15:43:43;23.70;1.00
37530;DHT22;23374;52.758;6.872;2022-08-01T15:46:04;23.70;1.00